createdAt,value
2023-12-23T00:00:42.282Z,23.95
2023-12-23T00:01:45.692Z,24.01
2023-12-23T00:02:49.141Z,24.04
2023-12-23T00:03:52.461Z,24.06
2023-12-23T00:04:56.037Z,24.06
2023-12-23T00:05:59.494Z,24.05
2023-12-23T00:07:03.025Z,24.07
2023-12-23T00:08:06.418Z,24.05
2023-12-23T00:09:09.971Z,24.05
2023-12-23T00:10:13.286Z,24.06
2023-12-23T00:11:16.788Z,24.06
2023-12-23T00:12:20.305Z,24.05
2023-12-23T00:13:23.901Z,24.05
2023-12-23T00:14:27.451Z,24.05
2023-12-23T00:15:30.793Z,24.03
2023-12-23T00:16:34.120Z,24.02
2023-12-23T00:17:38.332Z,24.02
2023-12-23T00:18:42.424Z,24.03
2023-12-23T00:19:46.258Z,24.02
2023-12-23T00:20:50.057Z,24.02
2023-12-23T00:21:53.685Z,24.02
2023-12-23T00:22:56.972Z,24
2023-12-23T00:24:00.888Z,24.01
2023-12-23T00:25:04.154Z,24.01
2023-12-23T00:26:07.467Z,24.01
2023-12-23T00:27:11.051Z,24
2023-12-23T00:28:14.700Z,23.99
2023-12-23T00:29:17.975Z,24
2023-12-23T00:30:21.232Z,23.99
2023-12-23T00:31:24.643Z,23.99
2023-12-23T00:32:28.059Z,23.97
2023-12-23T00:33:31.400Z,23.97
2023-12-23T00:34:34.791Z,23.97
2023-12-23T00:35:39.692Z,23.97
2023-12-23T00:36:43.008Z,23.96
2023-12-23T00:37:46.454Z,23.96
2023-12-23T00:38:50.419Z,23.96
2023-12-23T00:39:53.656Z,23.97
2023-12-23T00:40:58.509Z,23.96
2023-12-23T00:42:02.003Z,23.97
2023-12-23T00:43:05.254Z,23.96
2023-12-23T00:44:08.553Z,23.95
2023-12-23T00:45:11.972Z,23.93
2023-12-23T00:46:15.137Z,23.93
2023-12-23T00:47:18.565Z,23.93
2023-12-23T00:48:22.108Z,23.92
2023-12-23T00:49:26.122Z,23.93
2023-12-23T00:50:29.597Z,23.92
2023-12-23T00:51:32.861Z,23.91
2023-12-23T00:52:36.172Z,23.92
2023-12-23T00:53:39.688Z,23.91
2023-12-23T00:54:43.039Z,23.92
2023-12-23T00:55:46.424Z,23.91
2023-12-23T00:56:49.667Z,23.91
2023-12-23T00:57:52.954Z,23.89
2023-12-23T00:58:56.149Z,23.89
2023-12-23T00:59:59.565Z,23.87
2023-12-23T01:01:02.850Z,23.88
2023-12-23T01:02:06.252Z,23.88
2023-12-23T01:03:09.662Z,23.87
2023-12-23T01:04:13.034Z,23.87
2023-12-23T01:05:16.461Z,23.85
2023-12-23T01:06:20.148Z,23.87
2023-12-23T01:07:25.078Z,23.86
2023-12-23T01:08:28.403Z,23.87
2023-12-23T01:09:31.841Z,23.86
2023-12-23T01:10:35.213Z,23.86
2023-12-23T01:11:38.646Z,23.86
2023-12-23T01:12:43.468Z,23.85
2023-12-23T01:13:46.739Z,23.85
2023-12-23T01:14:49.945Z,23.84
2023-12-23T01:15:53.204Z,23.85
2023-12-23T01:16:56.540Z,23.83
2023-12-23T01:18:00.120Z,23.84
2023-12-23T01:19:04.143Z,23.85
2023-12-23T01:20:07.703Z,23.86
2023-12-23T01:21:11.172Z,23.84
2023-12-23T01:22:14.501Z,23.83
2023-12-23T01:23:17.773Z,23.81
2023-12-23T01:24:21.399Z,23.82
2023-12-23T01:25:26.206Z,23.82
2023-12-23T01:26:29.578Z,23.82
2023-12-23T01:27:32.803Z,23.82
2023-12-23T01:28:36.125Z,23.83
2023-12-23T01:29:39.489Z,23.82
2023-12-23T01:30:42.788Z,23.79
2023-12-23T01:31:46.295Z,23.8
2023-12-23T01:32:49.628Z,23.79
2023-12-23T01:33:53.134Z,23.79
2023-12-23T01:34:57.250Z,23.8
2023-12-23T01:36:02.266Z,23.79
2023-12-23T01:37:05.450Z,23.79
2023-12-23T01:38:10.293Z,23.79
2023-12-23T01:39:13.607Z,23.8
2023-12-23T01:40:16.835Z,23.8
2023-12-23T01:41:20.258Z,23.79
2023-12-23T01:42:23.621Z,23.78
2023-12-23T01:43:28.385Z,23.75
2023-12-23T01:44:31.600Z,23.74
2023-12-23T01:45:36.311Z,23.74
2023-12-23T01:46:40.039Z,23.73
2023-12-23T01:47:43.593Z,23.72
2023-12-23T01:48:47.168Z,23.72
2023-12-23T01:49:50.721Z,23.75
2023-12-23T01:50:54.037Z,23.76
2023-12-23T01:51:57.445Z,23.74
2023-12-23T01:53:00.761Z,23.72
2023-12-23T01:54:04.228Z,23.69
2023-12-23T01:55:07.548Z,23.68
2023-12-23T01:56:10.778Z,23.69
2023-12-23T01:57:14.207Z,23.71
2023-12-23T01:58:17.603Z,23.65
2023-12-23T01:59:20.989Z,23.67
2023-12-23T02:00:25.852Z,23.67
2023-12-23T02:01:30.685Z,23.71
2023-12-23T02:02:34.212Z,23.72
2023-12-23T02:03:37.588Z,23.67
2023-12-23T02:04:40.994Z,23.66
2023-12-23T02:05:44.442Z,23.66
2023-12-23T02:06:47.880Z,23.63
2023-12-23T02:07:51.217Z,23.66
2023-12-23T02:08:54.493Z,23.65
2023-12-23T02:09:57.722Z,23.67
2023-12-23T02:11:02.643Z,23.62
2023-12-23T02:12:05.956Z,23.68
2023-12-23T02:13:12.077Z,23.63
2023-12-23T02:14:17.573Z,23.7
2023-12-23T02:15:22.357Z,23.68
2023-12-23T02:16:25.670Z,23.7
2023-12-23T02:17:30.550Z,23.66
2023-12-23T02:18:34.057Z,23.64
2023-12-23T02:19:38.460Z,23.67
2023-12-23T02:20:41.784Z,23.65
2023-12-23T02:21:45.140Z,23.66
2023-12-23T02:22:48.602Z,23.63
2023-12-23T02:23:52.536Z,23.62
2023-12-23T02:24:57.223Z,23.58
2023-12-23T02:26:00.626Z,23.61
2023-12-23T02:27:04.072Z,23.62
2023-12-23T02:28:07.417Z,23.62
2023-12-23T02:29:10.723Z,23.62
2023-12-23T02:30:14.266Z,23.6
2023-12-23T02:31:17.731Z,23.59
2023-12-23T02:32:23.210Z,23.59
2023-12-23T02:33:26.990Z,23.61
2023-12-23T02:34:30.743Z,23.6
2023-12-23T02:35:34.106Z,23.6
2023-12-23T02:36:37.374Z,23.55
2023-12-23T02:37:42.224Z,23.58
2023-12-23T02:38:45.647Z,23.56
2023-12-23T02:39:49.015Z,23.57
2023-12-23T02:40:52.380Z,23.59
2023-12-23T02:41:55.959Z,23.6
2023-12-23T02:43:00.790Z,23.58
2023-12-23T02:44:05.593Z,23.59
2023-12-23T02:45:08.877Z,23.57
2023-12-23T02:46:12.147Z,23.54
2023-12-23T02:47:15.537Z,23.55
2023-12-23T02:48:19.076Z,23.53
2023-12-23T02:49:22.559Z,23.54
2023-12-23T02:50:27.396Z,23.54
2023-12-23T02:51:32.201Z,23.54
2023-12-23T02:52:35.490Z,23.54
2023-12-23T02:53:38.839Z,23.56
2023-12-23T02:54:42.231Z,23.58
2023-12-23T02:55:45.682Z,23.55
2023-12-23T02:56:48.991Z,23.54
2023-12-23T02:57:52.254Z,23.53
2023-12-23T02:58:55.789Z,23.52
2023-12-23T02:59:59.149Z,23.54
2023-12-23T03:01:02.601Z,23.54
2023-12-23T03:02:06.190Z,23.55
2023-12-23T03:03:09.421Z,23.49
2023-12-23T03:04:12.771Z,23.48
2023-12-23T03:05:16.118Z,23.49
2023-12-23T03:06:19.760Z,23.49
2023-12-23T03:07:23.248Z,23.48
2023-12-23T03:08:26.560Z,23.45
2023-12-23T03:09:29.881Z,23.45
2023-12-23T03:10:33.153Z,23.48
2023-12-23T03:11:36.504Z,23.48
2023-12-23T03:12:39.735Z,23.48
2023-12-23T03:13:43.092Z,23.48
2023-12-23T03:14:46.515Z,23.48
2023-12-23T03:15:49.767Z,23.47
2023-12-23T03:16:53.154Z,23.43
2023-12-23T03:17:58.166Z,23.45
2023-12-23T03:19:03.508Z,23.46
2023-12-23T03:20:08.723Z,23.49
2023-12-23T03:21:12.024Z,23.52
2023-12-23T03:22:15.185Z,23.51
2023-12-23T03:23:18.505Z,23.49
2023-12-23T03:24:21.935Z,23.47
2023-12-23T03:25:25.188Z,23.44
2023-12-23T03:26:28.513Z,23.44
2023-12-23T03:27:31.986Z,23.42
2023-12-23T03:28:35.268Z,23.43
2023-12-23T03:29:38.781Z,23.44
2023-12-23T03:30:42.162Z,23.36
2023-12-23T03:31:45.626Z,23.38
2023-12-23T03:32:49.325Z,23.43
2023-12-23T03:33:53.675Z,23.46
2023-12-23T03:34:57.214Z,23.47
2023-12-23T03:36:00.765Z,23.44
2023-12-23T03:37:04.083Z,23.43
2023-12-23T03:38:07.380Z,23.43
2023-12-23T03:39:10.613Z,23.44
2023-12-23T03:40:14.082Z,23.42
2023-12-23T03:41:17.476Z,23.42
2023-12-23T03:42:21.016Z,23.43
2023-12-23T03:43:24.301Z,23.42
2023-12-23T03:44:27.559Z,23.39
2023-12-23T03:45:32.809Z,23.37
2023-12-23T03:46:37.601Z,23.41
2023-12-23T03:47:40.958Z,23.45
2023-12-23T03:48:44.533Z,23.42
2023-12-23T03:49:47.708Z,23.39
2023-12-23T03:50:51.093Z,23.41
2023-12-23T03:51:54.316Z,23.43
2023-12-23T03:52:59.129Z,23.37
2023-12-23T03:54:02.556Z,23.4
2023-12-23T03:55:05.775Z,23.4
2023-12-23T03:56:09.029Z,23.4
2023-12-23T03:57:12.532Z,23.41
2023-12-23T03:58:17.374Z,23.38
2023-12-23T03:59:20.807Z,23.34
2023-12-23T04:00:24.634Z,23.35
2023-12-23T04:01:27.956Z,23.35
2023-12-23T04:02:31.205Z,23.36
2023-12-23T04:03:34.592Z,23.32
2023-12-23T04:04:38.148Z,23.33
2023-12-23T04:05:43.219Z,23.35
2023-12-23T04:06:48.030Z,23.36
2023-12-23T04:07:51.366Z,23.36
2023-12-23T04:08:54.491Z,23.33
2023-12-23T04:09:57.796Z,23.34
2023-12-23T04:11:01.061Z,23.34
2023-12-23T04:12:04.543Z,23.35
2023-12-23T04:13:07.853Z,23.31
2023-12-23T04:14:13.085Z,23.28
2023-12-23T04:15:16.712Z,23.31
2023-12-23T04:16:21.513Z,23.32
2023-12-23T04:17:24.853Z,23.37
2023-12-23T04:18:28.547Z,23.33
2023-12-23T04:19:32.123Z,23.33
2023-12-23T04:20:35.399Z,23.31
2023-12-23T04:21:38.724Z,23.31
2023-12-23T04:22:42.106Z,23.29
2023-12-23T04:23:45.476Z,23.27
2023-12-23T04:24:48.691Z,23.27
2023-12-23T04:25:51.983Z,23.29
2023-12-23T04:26:55.402Z,23.26
2023-12-23T04:27:58.853Z,23.26
2023-12-23T04:29:02.132Z,23.23
2023-12-23T04:30:05.774Z,23.2
2023-12-23T04:31:09.203Z,23.21
2023-12-23T04:32:12.916Z,23.27
2023-12-23T04:33:16.401Z,23.29
2023-12-23T04:34:19.911Z,23.26
2023-12-23T04:35:23.473Z,23.21
2023-12-23T04:36:26.972Z,23.22
2023-12-23T04:37:30.303Z,23.26
2023-12-23T04:38:33.653Z,23.25
2023-12-23T04:39:36.963Z,23.26
2023-12-23T04:40:40.250Z,23.27
2023-12-23T04:41:43.631Z,23.23
2023-12-23T04:42:47.030Z,23.21
2023-12-23T04:43:50.632Z,23.26
2023-12-23T04:44:53.905Z,23.26
2023-12-23T04:45:57.213Z,23.26
2023-12-23T04:47:00.642Z,23.23
2023-12-23T04:48:04.154Z,23.22
2023-12-23T04:49:09.140Z,23.22
2023-12-23T04:50:12.424Z,23.24
2023-12-23T04:51:15.816Z,23.22
2023-12-23T04:52:19.117Z,23.22
2023-12-23T04:53:24.466Z,23.21
2023-12-23T04:54:27.950Z,23.24
2023-12-23T04:55:31.236Z,23.23
2023-12-23T04:56:34.518Z,23.2
2023-12-23T04:57:37.734Z,23.18
2023-12-23T04:58:41.020Z,23.19
2023-12-23T04:59:44.399Z,23.22
2023-12-23T05:00:49.093Z,23.2
2023-12-23T05:01:52.468Z,23.16
2023-12-23T05:02:55.943Z,23.13
2023-12-23T05:03:59.438Z,23.16
2023-12-23T05:05:02.817Z,23.19
2023-12-23T05:06:07.006Z,23.21
2023-12-23T05:07:11.817Z,23.2
2023-12-23T05:08:15.116Z,23.24
2023-12-23T05:09:18.528Z,23.24
2023-12-23T05:10:21.802Z,23.2
2023-12-23T05:11:25.047Z,23.14
2023-12-23T05:12:28.535Z,23.16
2023-12-23T05:13:32.048Z,23.2
2023-12-23T05:14:35.316Z,23.2
2023-12-23T05:15:38.602Z,23.18
2023-12-23T05:16:43.365Z,23.12
2023-12-23T05:17:46.617Z,23.11
2023-12-23T05:18:50.171Z,23.11
2023-12-23T05:19:53.869Z,23.12
2023-12-23T05:20:57.316Z,23.15
2023-12-23T05:22:00.606Z,23.16
2023-12-23T05:23:03.865Z,23.11
2023-12-23T05:24:07.282Z,23.13
2023-12-23T05:25:10.497Z,23.16
2023-12-23T05:26:13.793Z,23.13
2023-12-23T05:27:17.193Z,23.09
2023-12-23T05:28:20.433Z,23.09
2023-12-23T05:29:23.791Z,23.07
2023-12-23T05:30:27.258Z,23.08
2023-12-23T05:31:32.220Z,23.13
2023-12-23T05:32:35.512Z,23.14
2023-12-23T05:33:39.209Z,23.13
2023-12-23T05:34:42.916Z,23.11
2023-12-23T05:35:46.284Z,23.12
2023-12-23T05:36:49.627Z,23.09
2023-12-23T05:37:53.343Z,23.03
2023-12-23T05:38:56.759Z,23.04
2023-12-23T05:40:00.051Z,23.06
2023-12-23T05:41:03.418Z,23.05
2023-12-23T05:42:06.760Z,23.02
2023-12-23T05:43:09.975Z,23.04
2023-12-23T05:44:14.830Z,23.07
2023-12-23T05:45:18.054Z,23.07
2023-12-23T05:46:21.374Z,23.07
2023-12-23T05:47:24.762Z,23.03
2023-12-23T05:48:28.812Z,23.08
2023-12-23T05:49:34.500Z,23.05
2023-12-23T05:50:37.858Z,23.12
2023-12-23T05:51:41.113Z,23.13
2023-12-23T05:52:44.352Z,23.12
2023-12-23T05:53:47.644Z,23.1
2023-12-23T05:54:50.950Z,23.04
2023-12-23T05:55:56.323Z,23.03
2023-12-23T05:57:01.428Z,23.12
2023-12-23T05:58:04.632Z,23.12
2023-12-23T05:59:07.885Z,23.13
2023-12-23T06:00:13.072Z,23.14
2023-12-23T06:01:16.838Z,23.17
2023-12-23T06:02:20.334Z,23.16
2023-12-23T06:03:23.902Z,23.13
2023-12-23T06:04:27.315Z,23.08
2023-12-23T06:05:30.748Z,23.08
2023-12-23T06:06:34.548Z,23.05
2023-12-23T06:07:37.998Z,23.05
2023-12-23T06:08:43.383Z,23.06
2023-12-23T06:09:46.558Z,23.08
2023-12-23T06:10:54.585Z,23.07
2023-12-23T06:12:03.223Z,23.2
2023-12-23T06:13:06.464Z,23.2
2023-12-23T06:14:09.802Z,23.19
2023-12-23T06:15:13.295Z,23.19
2023-12-23T06:16:16.599Z,23.18
2023-12-23T06:17:20.025Z,23.13
2023-12-23T06:18:25.221Z,23.13
2023-12-23T06:19:28.712Z,23.15
2023-12-23T06:20:32.006Z,23.13
2023-12-23T06:21:35.479Z,23.15
2023-12-23T06:22:38.866Z,23.12
2023-12-23T06:23:42.182Z,23.09
2023-12-23T06:24:45.484Z,23.08
2023-12-23T06:25:48.816Z,23.09
2023-12-23T06:26:52.201Z,23.12
2023-12-23T06:27:55.433Z,23.1
2023-12-23T06:28:58.786Z,23.08
2023-12-23T06:30:02.163Z,23.11
2023-12-23T06:31:05.414Z,23.1
2023-12-23T06:32:08.763Z,23.1
2023-12-23T06:33:12.264Z,23.11
2023-12-23T06:34:15.880Z,23.11
2023-12-23T06:35:19.385Z,23.12
2023-12-23T06:36:23.219Z,23.17
2023-12-23T06:37:26.686Z,23.19
2023-12-23T06:38:30.061Z,23.22
2023-12-23T06:39:33.656Z,23.21
2023-12-23T06:40:36.899Z,23.22
2023-12-23T06:41:40.173Z,23.23
2023-12-23T06:42:43.467Z,23.23
2023-12-23T06:43:51.217Z,23.22
2023-12-23T06:44:56.812Z,23.27
2023-12-23T06:46:00.049Z,23.24
2023-12-23T06:47:03.351Z,23.21
2023-12-23T06:48:06.886Z,23.22
2023-12-23T06:49:12.201Z,23.21
2023-12-23T06:50:15.573Z,23.22
2023-12-23T06:51:19.175Z,23.24
2023-12-23T06:52:22.513Z,23.18
2023-12-23T06:53:25.778Z,23.21
2023-12-23T06:54:29.135Z,23.21
2023-12-23T06:55:32.364Z,23.21
2023-12-23T06:56:35.975Z,23.15
2023-12-23T06:57:39.292Z,23.16
2023-12-23T06:58:42.631Z,23.15
2023-12-23T06:59:46.052Z,23.18
2023-12-23T07:00:49.366Z,23.21
2023-12-23T07:01:52.717Z,23.21
2023-12-23T07:02:56.172Z,23.2
2023-12-23T07:03:59.428Z,23.21
2023-12-23T07:05:02.894Z,23.2
2023-12-23T07:06:06.564Z,23.22
2023-12-23T07:07:10.019Z,23.26
2023-12-23T07:08:13.292Z,23.28
2023-12-23T07:09:16.685Z,23.25
2023-12-23T07:10:20.071Z,23.26
2023-12-23T07:11:23.520Z,23.27
2023-12-23T07:12:26.872Z,23.27
2023-12-23T07:13:31.620Z,23.24
2023-12-23T07:14:34.950Z,23.25
2023-12-23T07:15:38.242Z,23.27
2023-12-23T07:16:41.531Z,23.24
2023-12-23T07:17:44.984Z,23.27
2023-12-23T07:18:48.700Z,23.32
2023-12-23T07:19:52.240Z,23.33
2023-12-23T07:20:55.655Z,23.32
2023-12-23T07:22:00.466Z,23.31
2023-12-23T07:23:05.197Z,23.3
2023-12-23T07:24:08.398Z,23.31
2023-12-23T07:25:11.610Z,23.31
2023-12-23T07:26:15.279Z,23.28
2023-12-23T07:27:18.978Z,23.3
2023-12-23T07:28:22.310Z,23.25
2023-12-23T07:29:25.630Z,23.25
2023-12-23T07:30:29.110Z,23.3
2023-12-23T07:31:32.511Z,23.32
2023-12-23T07:32:35.829Z,23.32
2023-12-23T07:33:39.427Z,23.34
2023-12-23T07:34:44.570Z,23.35
2023-12-23T07:35:47.740Z,23.34
2023-12-23T07:36:50.887Z,23.35
2023-12-23T07:37:54.198Z,23.38
2023-12-23T07:38:57.621Z,23.38
2023-12-23T07:40:00.874Z,23.35
2023-12-23T07:41:04.143Z,23.37
2023-12-23T07:42:07.509Z,23.38
2023-12-23T07:43:10.706Z,23.4
2023-12-23T07:44:14.002Z,23.43
2023-12-23T07:45:19.490Z,23.44
2023-12-23T07:46:22.739Z,23.44
2023-12-23T07:47:26.197Z,23.42
2023-12-23T07:48:29.815Z,23.41
2023-12-23T07:49:34.807Z,23.45
2023-12-23T07:50:42.560Z,23.49
2023-12-23T07:51:45.735Z,23.48
2023-12-23T07:52:49.116Z,23.45
2023-12-23T07:53:54.784Z,23.47
2023-12-23T07:54:58.340Z,23.5
2023-12-23T07:56:01.834Z,23.51
2023-12-23T07:57:05.408Z,23.53
2023-12-23T07:58:10.203Z,23.52
2023-12-23T07:59:13.479Z,23.52
2023-12-23T08:00:16.897Z,23.54
2023-12-23T08:01:20.162Z,23.55
2023-12-23T08:02:23.721Z,23.54
2023-12-23T08:03:27.296Z,23.52
2023-12-23T08:04:30.768Z,23.52
2023-12-23T08:05:34.048Z,23.55
2023-12-23T08:06:37.665Z,23.55
2023-12-23T08:07:41.199Z,23.52
2023-12-23T08:08:44.598Z,23.51
2023-12-23T08:09:49.516Z,23.51
2023-12-23T08:10:52.881Z,23.53
2023-12-23T08:11:56.337Z,23.55
2023-12-23T08:12:59.655Z,23.54
2023-12-23T08:14:03.107Z,23.57
2023-12-23T08:15:06.534Z,23.57
2023-12-23T08:16:09.695Z,23.57
2023-12-23T08:17:12.975Z,23.57
2023-12-23T08:18:16.617Z,23.55
2023-12-23T08:19:21.989Z,23.56
2023-12-23T08:20:25.966Z,23.62
2023-12-23T08:21:29.607Z,23.61
2023-12-23T08:22:32.933Z,23.6
2023-12-23T08:23:36.282Z,23.61
2023-12-23T08:24:39.681Z,23.6
2023-12-23T08:25:43.027Z,23.62
2023-12-23T08:26:46.271Z,23.62
2023-12-23T08:27:49.558Z,23.62
2023-12-23T08:28:52.884Z,23.62
2023-12-23T08:29:56.657Z,23.62
2023-12-23T08:30:59.938Z,23.64
2023-12-23T08:32:03.408Z,23.63
2023-12-23T08:33:06.873Z,23.63
2023-12-23T08:34:10.321Z,23.62
2023-12-23T08:35:13.839Z,23.64
2023-12-23T08:36:17.248Z,23.63
2023-12-23T08:37:20.541Z,23.65
2023-12-23T08:38:23.813Z,23.64
2023-12-23T08:39:27.413Z,23.67
2023-12-23T08:40:30.704Z,23.65
2023-12-23T08:41:33.980Z,23.66
2023-12-23T08:42:37.290Z,23.69
2023-12-23T08:43:40.634Z,23.66
2023-12-23T08:44:44.113Z,23.6
2023-12-23T08:45:47.483Z,23.63
2023-12-23T08:46:50.898Z,23.62
2023-12-23T08:47:54.671Z,23.66
2023-12-23T08:48:59.494Z,23.66
2023-12-23T08:50:03.239Z,23.7
2023-12-23T08:51:06.623Z,23.69
2023-12-23T08:52:09.818Z,23.64
2023-12-23T08:53:13.132Z,23.66
2023-12-23T08:54:16.607Z,23.68
2023-12-23T08:55:19.915Z,23.69
2023-12-23T08:56:23.282Z,23.69
2023-12-23T08:57:28.457Z,23.7
2023-12-23T08:58:31.761Z,23.74
2023-12-23T08:59:37.072Z,23.75
2023-12-23T09:00:40.277Z,23.77
2023-12-23T09:01:43.752Z,23.79
2023-12-23T09:02:47.043Z,23.81
2023-12-23T09:03:52.369Z,23.76
2023-12-23T09:04:55.887Z,23.79
2023-12-23T09:05:59.654Z,23.78
2023-12-23T09:07:03.474Z,23.77
2023-12-23T09:08:08.304Z,23.81
2023-12-23T09:09:13.545Z,23.81
2023-12-23T09:10:17.209Z,23.78
2023-12-23T09:11:20.563Z,23.75
2023-12-23T09:12:24.151Z,23.72
2023-12-23T09:13:27.381Z,23.7
2023-12-23T09:14:30.710Z,23.69
2023-12-23T09:15:34.353Z,23.7
2023-12-23T09:16:37.715Z,23.71
2023-12-23T09:17:41.237Z,23.7
2023-12-23T09:18:44.978Z,23.72
2023-12-23T09:19:48.424Z,23.71
2023-12-23T09:20:51.901Z,23.73
2023-12-23T09:21:55.215Z,23.74
2023-12-23T09:22:58.548Z,23.7
2023-12-23T09:24:02.092Z,23.72
2023-12-23T09:25:05.423Z,23.71
2023-12-23T09:26:08.589Z,23.71
2023-12-23T09:27:11.991Z,23.72
2023-12-23T09:28:15.287Z,23.71
2023-12-23T09:29:18.551Z,23.73
2023-12-23T09:30:22.194Z,23.75
2023-12-23T09:31:25.653Z,23.77
2023-12-23T09:32:28.955Z,23.76
2023-12-23T09:33:32.729Z,23.78
2023-12-23T09:34:36.300Z,23.77
2023-12-23T09:35:39.620Z,23.78
2023-12-23T09:36:43.085Z,23.76
2023-12-23T09:37:46.324Z,23.75
2023-12-23T09:38:49.901Z,23.77
2023-12-23T09:39:53.259Z,23.76
2023-12-23T09:40:56.545Z,23.77
2023-12-23T09:42:00.118Z,23.76
2023-12-23T09:43:03.472Z,23.75
2023-12-23T09:44:08.245Z,23.77
2023-12-23T09:45:11.587Z,23.77
2023-12-23T09:46:14.964Z,23.78
2023-12-23T09:47:18.333Z,23.77
2023-12-23T09:48:21.818Z,23.79
2023-12-23T09:49:25.847Z,23.77
2023-12-23T09:50:31.052Z,23.79
2023-12-23T09:51:34.532Z,23.81
2023-12-23T09:52:37.787Z,23.82
2023-12-23T09:53:41.196Z,23.83
2023-12-23T09:54:44.553Z,23.82
2023-12-23T09:55:47.733Z,23.81
2023-12-23T09:56:51.020Z,23.82
2023-12-23T09:57:54.308Z,23.83
2023-12-23T09:58:57.627Z,23.82
2023-12-23T10:00:01.055Z,23.83
2023-12-23T10:01:04.435Z,23.82
2023-12-23T10:02:07.731Z,23.82
2023-12-23T10:03:11.266Z,23.83
2023-12-23T10:04:14.673Z,23.83
2023-12-23T10:05:18.024Z,23.83
2023-12-23T10:06:22.466Z,23.83
2023-12-23T10:07:26.415Z,23.84
2023-12-23T10:08:31.208Z,23.84
2023-12-23T10:09:34.710Z,23.87
2023-12-23T10:10:38.044Z,23.86
2023-12-23T10:11:41.327Z,23.86
2023-12-23T10:12:44.639Z,23.86
2023-12-23T10:13:47.976Z,23.86
2023-12-23T10:14:51.179Z,23.87
2023-12-23T10:15:54.408Z,23.86
2023-12-23T10:16:59.241Z,23.85
2023-12-23T10:18:02.768Z,23.85
2023-12-23T10:19:06.360Z,23.86
2023-12-23T10:20:09.788Z,23.88
2023-12-23T10:21:13.289Z,23.86
2023-12-23T10:22:16.640Z,23.85
2023-12-23T10:23:19.951Z,23.85
2023-12-23T10:24:23.344Z,23.85
2023-12-23T10:25:26.609Z,23.86
2023-12-23T10:26:29.936Z,23.86
2023-12-23T10:27:33.541Z,23.87
2023-12-23T10:28:36.895Z,23.87
2023-12-23T10:29:42.188Z,23.88
2023-12-23T10:30:45.379Z,23.91
2023-12-23T10:31:48.942Z,23.89
2023-12-23T10:32:52.546Z,23.89
2023-12-23T10:33:56.683Z,23.88
2023-12-23T10:35:00.346Z,23.89
2023-12-23T10:36:04.577Z,23.9
2023-12-23T10:37:07.922Z,23.9
2023-12-23T10:38:12.727Z,23.91
2023-12-23T10:39:16.073Z,23.9
2023-12-23T10:40:19.377Z,23.86
2023-12-23T10:41:22.682Z,23.85
2023-12-23T10:42:26.227Z,23.85
2023-12-23T10:43:29.504Z,23.86
2023-12-23T10:44:34.812Z,23.87
2023-12-23T10:45:38.029Z,23.9
2023-12-23T10:46:41.353Z,23.9
2023-12-23T10:47:44.573Z,23.9
2023-12-23T10:48:48.461Z,23.91
2023-12-23T10:49:52.158Z,23.89
2023-12-23T10:50:57.045Z,23.91
2023-12-23T10:52:04.836Z,23.98
2023-12-23T10:53:08.140Z,23.97
2023-12-23T10:54:11.740Z,23.97
2023-12-23T10:55:15.177Z,23.96
2023-12-23T10:56:20.036Z,23.96
2023-12-23T10:57:23.524Z,23.95
2023-12-23T10:58:28.551Z,23.93
2023-12-23T10:59:31.814Z,23.94
2023-12-23T11:00:36.730Z,23.94
2023-12-23T11:01:41.603Z,23.93
2023-12-23T11:02:44.852Z,23.92
2023-12-23T11:03:48.229Z,23.91
2023-12-23T11:04:51.838Z,23.9
2023-12-23T11:05:55.343Z,23.91
2023-12-23T11:07:00.713Z,23.91
2023-12-23T11:08:06.993Z,23.87
2023-12-23T11:09:17.207Z,24.01
2023-12-23T11:10:21.849Z,24.04
2023-12-23T11:11:25.153Z,24.01
2023-12-23T11:12:28.745Z,23.97
2023-12-23T11:13:32.038Z,23.97
2023-12-23T11:14:35.343Z,23.96
2023-12-23T11:15:38.683Z,23.97
2023-12-23T11:16:43.517Z,23.98
2023-12-23T11:17:47.035Z,23.98
2023-12-23T11:18:51.043Z,24
2023-12-23T11:19:54.550Z,24.01
2023-12-23T11:20:57.913Z,23.93
2023-12-23T11:22:01.189Z,23.91
2023-12-23T11:23:04.471Z,23.92
2023-12-23T11:24:07.720Z,23.92
2023-12-23T11:25:11.079Z,23.86
2023-12-23T11:26:14.376Z,23.89
2023-12-23T11:27:17.764Z,23.9
2023-12-23T11:28:21.055Z,23.93
2023-12-23T11:29:24.494Z,23.97
2023-12-23T11:30:27.949Z,23.93
2023-12-23T11:31:31.239Z,23.93
2023-12-23T11:32:34.622Z,23.94
2023-12-23T11:33:38.641Z,24.01
2023-12-23T11:34:42.505Z,23.99
2023-12-23T11:35:47.269Z,23.97
2023-12-23T11:36:50.484Z,24.01
2023-12-23T11:37:53.908Z,24.01
2023-12-23T11:38:58.455Z,24.04
2023-12-23T11:40:01.865Z,24.03
2023-12-23T11:41:05.337Z,23.99
2023-12-23T11:42:08.683Z,23.97
2023-12-23T11:43:13.515Z,24
2023-12-23T11:44:16.795Z,23.99
2023-12-23T11:45:21.011Z,23.99
2023-12-23T11:46:24.601Z,23.99
2023-12-23T11:47:27.985Z,24
2023-12-23T11:48:31.836Z,24
2023-12-23T11:49:35.452Z,24.02
2023-12-23T11:50:38.744Z,24.04
2023-12-23T11:51:42.081Z,24.01
2023-12-23T11:52:45.349Z,23.96
2023-12-23T11:53:49.011Z,23.99
2023-12-23T11:54:53.877Z,23.99
2023-12-23T11:55:57.232Z,24.02
2023-12-23T11:57:00.693Z,24.02
2023-12-23T11:58:03.974Z,24.03
2023-12-23T11:59:07.214Z,24.02
2023-12-23T12:00:10.897Z,24.03
2023-12-23T12:01:14.216Z,24.01
2023-12-23T12:02:19.710Z,23.98
2023-12-23T12:03:23.164Z,24.01
2023-12-23T12:04:26.475Z,24.03
2023-12-23T12:05:29.803Z,24
2023-12-23T12:06:33.444Z,24
2023-12-23T12:07:37.178Z,24.02
2023-12-23T12:08:40.457Z,24.07
2023-12-23T12:09:43.707Z,24.12
2023-12-23T12:10:46.970Z,24.16
2023-12-23T12:11:50.398Z,24.13
2023-12-23T12:12:53.978Z,24.08
2023-12-23T12:13:58.049Z,24.07
2023-12-23T12:15:01.547Z,24.08
2023-12-23T12:16:04.841Z,24.05
2023-12-23T12:17:10.233Z,24.06
2023-12-23T12:18:13.934Z,24.09
2023-12-23T12:19:17.764Z,24.06
2023-12-23T12:20:21.653Z,24.1
2023-12-23T12:21:25.015Z,24.07
2023-12-23T12:22:28.290Z,24.06
2023-12-23T12:23:31.624Z,24.05
2023-12-23T12:24:35.116Z,24.08
2023-12-23T12:25:38.453Z,24.09
2023-12-23T12:26:41.885Z,24.1
2023-12-23T12:27:45.076Z,24.12
2023-12-23T12:28:48.434Z,24.13
2023-12-23T12:29:51.993Z,24.13
2023-12-23T12:30:55.343Z,24.12
2023-12-23T12:31:59.027Z,24.09
2023-12-23T12:33:02.724Z,24.1
2023-12-23T12:34:06.296Z,24.1
2023-12-23T12:35:09.762Z,24.11
2023-12-23T12:36:14.665Z,24.09
2023-12-23T12:37:18.601Z,24.1
2023-12-23T12:38:23.655Z,24.14
2023-12-23T12:39:28.220Z,24.18
2023-12-23T12:40:33.020Z,24.17
2023-12-23T12:41:36.214Z,24.19
2023-12-23T12:42:39.466Z,24.17
2023-12-23T12:43:42.830Z,24.16
2023-12-23T12:44:48.110Z,24.15
2023-12-23T12:45:51.267Z,24.16
2023-12-23T12:46:54.609Z,24.14
2023-12-23T12:47:58.007Z,24.13
2023-12-23T12:49:01.795Z,24.14
2023-12-23T12:50:06.222Z,24.1
2023-12-23T12:51:10.989Z,24.16
2023-12-23T12:52:14.307Z,24.17
2023-12-23T12:53:17.580Z,24.15
2023-12-23T12:54:21.017Z,24.19
2023-12-23T12:55:24.365Z,24.15
2023-12-23T12:56:27.746Z,24.17
2023-12-23T12:57:32.611Z,24.15
2023-12-23T12:58:35.885Z,24.15
2023-12-23T12:59:42.201Z,24.18
2023-12-23T13:00:46.979Z,24.18
2023-12-23T13:01:50.378Z,24.2
2023-12-23T13:02:54.178Z,24.16
2023-12-23T13:03:58.173Z,24.16
2023-12-23T13:05:03.501Z,24.17
2023-12-23T13:06:06.732Z,24.18
2023-12-23T13:07:10.311Z,24.19
2023-12-23T13:08:13.633Z,24.19
2023-12-23T13:09:17.187Z,24.19
2023-12-23T13:10:20.453Z,24.19
2023-12-23T13:11:23.875Z,24.17
2023-12-23T13:12:27.432Z,24.18
2023-12-23T13:13:30.683Z,24.18
2023-12-23T13:14:34.038Z,24.19
2023-12-23T13:15:37.379Z,24.18
2023-12-23T13:16:43.273Z,24.18
2023-12-23T13:17:50.911Z,24.19
2023-12-23T13:18:59.008Z,24.22
2023-12-23T13:20:04.936Z,24.29
2023-12-23T13:21:08.618Z,24.34
2023-12-23T13:22:11.824Z,24.27
2023-12-23T13:23:15.079Z,24.23
2023-12-23T13:24:18.388Z,24.21
2023-12-23T13:25:21.697Z,24.21
2023-12-23T13:26:25.093Z,24.2
2023-12-23T13:27:28.853Z,24.2
2023-12-23T13:28:32.198Z,24.21
2023-12-23T13:29:35.542Z,24.19
2023-12-23T13:30:39.136Z,24.22
2023-12-23T13:31:42.661Z,24.25
2023-12-23T13:32:46.062Z,24.27
2023-12-23T13:33:49.485Z,24.28
2023-12-23T13:34:55.116Z,24.26
2023-12-23T13:35:58.498Z,24.29
2023-12-23T13:37:01.779Z,24.28
2023-12-23T13:38:05.132Z,24.24
2023-12-23T13:39:08.668Z,24.24
2023-12-23T13:40:12.054Z,24.25
2023-12-23T13:41:15.362Z,24.28
2023-12-23T13:42:18.740Z,24.24
2023-12-23T13:43:22.007Z,24.21